sensor_id;sensor_type;location;lat;lon;timestamp;temperature;humidity
35381;DHT22;21486;51.916;8.378;2023-04-03T00:00:47;3.40;79.00
35381;DHT22;21486;51.916;8.378;2023-04-03T00:03:14;3.40;79.80
35381;DHT22;21486;51.916;8.378;2023-04-03T00:05:40;3.30;80.90
35381;DHT22;21486;51.916;8.378;2023-04-03T00:08:06;3.30;79.40
35381;DHT22;21486;51.916;8.378;2023-04-03T00:10:33;3.30;78.90
35381;DHT22;21486;51.916;8.378;2023-04-03T00:12:59;3.40;79.60
35381;DHT22;21486;51.916;8.378;2023-04-03T00:15:24;3.30;79.30
35381;DHT22;21486;51.916;8.378;2023-04-03T00:17:50;3.30;80.20
35381;DHT22;21486;51.916;8.378;2023-04-03T00:20:15;3.20;79.80
35381;DHT22;21486;51.916;8.378;2023-04-03T00:22:41;3.20;79.70
35381;DHT22;21486;51.916;8.378;2023-04-03T00:25:07;3.20;80.00
35381;DHT22;21486;51.916;8.378;2023-04-03T00:27:32;3.20;80.20
35381;DHT22;21486;51.916;8.378;2023-04-03T00:29:58;3.10;80.40
35381;DHT22;21486;51.916;8.378;2023-04-03T00:33:04;3.00;79.90
35381;DHT22;21486;51.916;8.378;2023-04-03T00:35:30;3.00;80.30
35381;DHT22;21486;51.916;8.378;2023-04-03T00:37:55;3.00;81.10
35381;DHT22;21486;51.916;8.378;2023-04-03T00:40:23;3.00;80.70
35381;DHT22;21486;51.916;8.378;2023-04-03T00:42:56;2.90;80.80
35381;DHT22;21486;51.916;8.378;2023-04-03T00:45:26;2.80;81.20
35381;DHT22;21486;51.916;8.378;2023-04-03T00:47:53;2.80;81.40
35381;DHT22;21486;51.916;8.378;2023-04-03T00:50:18;2.70;81.20
35381;DHT22;21486;51.916;8.378;2023-04-03T00:52:44;2.80;81.40
35381;DHT22;21486;51.916;8.378;2023-04-03T00:55:12;2.80;81.80
35381;DHT22;21486;51.916;8.378;2023-04-03T00:57:40;2.70;81.60
35381;DHT22;21486;51.916;8.378;2023-04-03T01:00:09;2.80;81.40
35381;DHT22;21486;51.916;8.378;2023-04-03T01:02:35;2.80;81.30
35381;DHT22;21486;51.916;8.378;2023-04-03T01:05:00;2.70;81.60
35381;DHT22;21486;51.916;8.378;2023-04-03T01:07:29;2.70;81.70
35381;DHT22;21486;51.916;8.378;2023-04-03T01:10:00;2.60;82.30
35381;DHT22;21486;51.916;8.378;2023-04-03T01:12:32;2.60;82.00
35381;DHT22;21486;51.916;8.378;2023-04-03T01:15:00;2.60;83.00
35381;DHT22;21486;51.916;8.378;2023-04-03T01:17:35;2.70;82.60
35381;DHT22;21486;51.916;8.378;2023-04-03T01:25:42;2.40;84.10
35381;DHT22;21486;51.916;8.378;2023-04-03T01:28:18;2.40;84.80
35381;DHT22;21486;51.916;8.378;2023-04-03T01:33:25;2.30;84.40
35381;DHT22;21486;51.916;8.378;2023-04-03T01:35:51;2.20;85.10
35381;DHT22;21486;51.916;8.378;2023-04-03T01:38:16;2.10;85.10
35381;DHT22;21486;51.916;8.378;2023-04-03T01:40:42;2.20;85.80
35381;DHT22;21486;51.916;8.378;2023-04-03T01:43:07;2.20;84.80
35381;DHT22;21486;51.916;8.378;2023-04-03T01:45:33;2.10;86.30
35381;DHT22;21486;51.916;8.378;2023-04-03T01:47:59;2.10;86.40
35381;DHT22;21486;51.916;8.378;2023-04-03T01:50:24;2.00;86.80
35381;DHT22;21486;51.916;8.378;2023-04-03T01:52:50;2.10;86.80
35381;DHT22;21486;51.916;8.378;2023-04-03T01:55:15;2.00;86.00
35381;DHT22;21486;51.916;8.378;2023-04-03T01:57:41;1.90;86.40
35381;DHT22;21486;51.916;8.378;2023-04-03T02:00:07;2.00;85.60
35381;DHT22;21486;51.916;8.378;2023-04-03T02:02:33;2.00;85.60
35381;DHT22;21486;51.916;8.378;2023-04-03T02:04:58;1.90;85.80
35381;DHT22;21486;51.916;8.378;2023-04-03T02:07:24;1.90;86.70
35381;DHT22;21486;51.916;8.378;2023-04-03T02:09:50;1.80;86.40
35381;DHT22;21486;51.916;8.378;2023-04-03T02:12:15;1.90;86.00
35381;DHT22;21486;51.916;8.378;2023-04-03T02:14:41;1.80;87.50
35381;DHT22;21486;51.916;8.378;2023-04-03T02:17:06;1.80;87.60
35381;DHT22;21486;51.916;8.378;2023-04-03T02:19:35;1.80;87.50
35381;DHT22;21486;51.916;8.378;2023-04-03T02:22:02;1.70;87.60
35381;DHT22;21486;51.916;8.378;2023-04-03T02:24:27;1.70;87.10
35381;DHT22;21486;51.916;8.378;2023-04-03T02:26:53;1.70;87.40
35381;DHT22;21486;51.916;8.378;2023-04-03T02:29:19;1.70;87.20
35381;DHT22;21486;51.916;8.378;2023-04-03T02:31:45;1.70;87.20
35381;DHT22;21486;51.916;8.378;2023-04-03T02:34:10;1.60;88.10
35381;DHT22;21486;51.916;8.378;2023-04-03T02:36:36;1.70;87.60
35381;DHT22;21486;51.916;8.378;2023-04-03T02:39:02;1.60;87.00
35381;DHT22;21486;51.916;8.378;2023-04-03T02:41:28;1.60;86.70
35381;DHT22;21486;51.916;8.378;2023-04-03T02:44:03;1.60;87.70
35381;DHT22;21486;51.916;8.378;2023-04-03T02:46:29;1.50;87.90
35381;DHT22;21486;51.916;8.378;2023-04-03T02:48:54;1.50;88.60
35381;DHT22;21486;51.916;8.378;2023-04-03T02:51:20;1.50;88.00
35381;DHT22;21486;51.916;8.378;2023-04-03T02:53:46;1.40;89.40
35381;DHT22;21486;51.916;8.378;2023-04-03T02:56:11;1.30;89.20
35381;DHT22;21486;51.916;8.378;2023-04-03T02:58:37;1.30;89.60
35381;DHT22;21486;51.916;8.378;2023-04-03T03:01:03;1.30;89.90
35381;DHT22;21486;51.916;8.378;2023-04-03T03:03:29;1.30;89.80
35381;DHT22;21486;51.916;8.378;2023-04-03T03:06:05;1.20;90.20
35381;DHT22;21486;51.916;8.378;2023-04-03T03:08:31;1.30;90.10
35381;DHT22;21486;51.916;8.378;2023-04-03T03:10:56;1.40;90.10
35381;DHT22;21486;51.916;8.378;2023-04-03T03:13:22;1.40;90.00
35381;DHT22;21486;51.916;8.378;2023-04-03T03:15:47;1.20;89.70
35381;DHT22;21486;51.916;8.378;2023-04-03T03:18:13;1.10;90.50
35381;DHT22;21486;51.916;8.378;2023-04-03T03:20:39;1.10;90.60
35381;DHT22;21486;51.916;8.378;2023-04-03T03:23:04;1.00;90.80
35381;DHT22;21486;51.916;8.378;2023-04-03T03:25:30;1.00;90.40
35381;DHT22;21486;51.916;8.378;2023-04-03T03:27:55;1.00;90.20
35381;DHT22;21486;51.916;8.378;2023-04-03T03:30:21;1.00;90.00
35381;DHT22;21486;51.916;8.378;2023-04-03T03:32:46;1.00;90.20
35381;DHT22;21486;51.916;8.378;2023-04-03T03:35:12;1.00;90.40
35381;DHT22;21486;51.916;8.378;2023-04-03T03:37:37;0.90;90.60
35381;DHT22;21486;51.916;8.378;2023-04-03T03:40:03;1.10;90.20
35381;DHT22;21486;51.916;8.378;2023-04-03T03:42:29;1.10;90.10
35381;DHT22;21486;51.916;8.378;2023-04-03T03:44:54;1.10;89.30
35381;DHT22;21486;51.916;8.378;2023-04-03T03:47:20;1.00;89.60
35381;DHT22;21486;51.916;8.378;2023-04-03T03:49:46;1.10;90.20
35381;DHT22;21486;51.916;8.378;2023-04-03T03:52:11;1.00;89.90
35381;DHT22;21486;51.916;8.378;2023-04-03T03:54:37;1.00;89.50
35381;DHT22;21486;51.916;8.378;2023-04-03T03:57:03;1.00;89.50
35381;DHT22;21486;51.916;8.378;2023-04-03T03:59:29;1.00;89.40
35381;DHT22;21486;51.916;8.378;2023-04-03T04:01:54;1.00;89.80
35381;DHT22;21486;51.916;8.378;2023-04-03T04:04:20;0.90;90.20
35381;DHT22;21486;51.916;8.378;2023-04-03T04:06:46;1.00;90.00
35381;DHT22;21486;51.916;8.378;2023-04-03T04:09:12;0.80;90.30
35381;DHT22;21486;51.916;8.378;2023-04-03T04:11:37;0.90;90.30
35381;DHT22;21486;51.916;8.378;2023-04-03T04:14:05;0.90;90.30
35381;DHT22;21486;51.916;8.378;2023-04-03T04:16:31;0.90;90.30
35381;DHT22;21486;51.916;8.378;2023-04-03T04:18:56;0.80;90.30
35381;DHT22;21486;51.916;8.378;2023-04-03T04:21:22;0.80;90.60
35381;DHT22;21486;51.916;8.378;2023-04-03T04:23:47;0.70;90.70
35381;DHT22;21486;51.916;8.378;2023-04-03T04:26:13;0.70;90.70
35381;DHT22;21486;51.916;8.378;2023-04-03T04:28:38;0.80;90.90
35381;DHT22;21486;51.916;8.378;2023-04-03T04:31:04;0.70;90.70
35381;DHT22;21486;51.916;8.378;2023-04-03T04:33:29;0.80;90.80
35381;DHT22;21486;51.916;8.378;2023-04-03T04:35:55;0.70;91.00
35381;DHT22;21486;51.916;8.378;2023-04-03T04:38:21;0.60;91.10
35381;DHT22;21486;51.916;8.378;2023-04-03T04:40:47;0.60;91.20
35381;DHT22;21486;51.916;8.378;2023-04-03T04:43:13;0.50;91.40
35381;DHT22;21486;51.916;8.378;2023-04-03T04:45:40;0.50;91.50
35381;DHT22;21486;51.916;8.378;2023-04-03T04:48:05;0.50;91.80
35381;DHT22;21486;51.916;8.378;2023-04-03T04:50:31;0.60;91.50
35381;DHT22;21486;51.916;8.378;2023-04-03T04:52:56;0.70;91.50
35381;DHT22;21486;51.916;8.378;2023-04-03T04:55:22;0.60;91.50
35381;DHT22;21486;51.916;8.378;2023-04-03T04:57:47;0.50;91.40
35381;DHT22;21486;51.916;8.378;2023-04-03T05:00:14;0.50;91.60
35381;DHT22;21486;51.916;8.378;2023-04-03T05:02:39;0.60;91.70
35381;DHT22;21486;51.916;8.378;2023-04-03T05:05:05;0.50;91.70
35381;DHT22;21486;51.916;8.378;2023-04-03T05:07:31;0.50;92.00
35381;DHT22;21486;51.916;8.378;2023-04-03T05:09:56;0.40;92.10
35381;DHT22;21486;51.916;8.378;2023-04-03T05:12:22;0.40;92.50
35381;DHT22;21486;51.916;8.378;2023-04-03T05:14:48;0.40;92.30
35381;DHT22;21486;51.916;8.378;2023-04-03T05:17:13;0.60;91.90
35381;DHT22;21486;51.916;8.378;2023-04-03T05:19:39;0.60;91.90
35381;DHT22;21486;51.916;8.378;2023-04-03T05:22:05;0.60;92.00
35381;DHT22;21486;51.916;8.378;2023-04-03T05:24:30;0.50;92.10
35381;DHT22;21486;51.916;8.378;2023-04-03T05:26:56;0.50;92.40
35381;DHT22;21486;51.916;8.378;2023-04-03T05:29:21;0.50;92.30
35381;DHT22;21486;51.916;8.378;2023-04-03T05:31:49;0.50;91.80
35381;DHT22;21486;51.916;8.378;2023-04-03T05:34:15;0.50;92.30
35381;DHT22;21486;51.916;8.378;2023-04-03T05:36:41;0.70;92.30
35381;DHT22;21486;51.916;8.378;2023-04-03T05:39:06;0.70;92.10
35381;DHT22;21486;51.916;8.378;2023-04-03T05:41:32;0.80;91.90
35381;DHT22;21486;51.916;8.378;2023-04-03T05:43:58;0.70;91.80
35381;DHT22;21486;51.916;8.378;2023-04-03T05:46:23;0.70;91.70
35381;DHT22;21486;51.916;8.378;2023-04-03T05:48:49;0.70;91.90
35381;DHT22;21486;51.916;8.378;2023-04-03T05:51:19;0.60;91.60
35381;DHT22;21486;51.916;8.378;2023-04-03T05:53:46;0.70;91.60
35381;DHT22;21486;51.916;8.378;2023-04-03T05:56:12;0.70;91.90
35381;DHT22;21486;51.916;8.378;2023-04-03T05:58:37;0.80;91.50
35381;DHT22;21486;51.916;8.378;2023-04-03T06:01:06;0.90;91.30
35381;DHT22;21486;51.916;8.378;2023-04-03T06:03:33;0.90;91.30
35381;DHT22;21486;51.916;8.378;2023-04-03T06:05:58;1.00;91.00
35381;DHT22;21486;51.916;8.378;2023-04-03T06:08:24;1.00;91.00
35381;DHT22;21486;51.916;8.378;2023-04-03T06:10:50;1.10;90.80
35381;DHT22;21486;51.916;8.378;2023-04-03T06:13:16;1.10;90.70
35381;DHT22;21486;51.916;8.378;2023-04-03T06:15:41;1.10;90.80
35381;DHT22;21486;51.916;8.378;2023-04-03T06:18:07;1.20;90.80
35381;DHT22;21486;51.916;8.378;2023-04-03T06:20:33;1.30;90.60
35381;DHT22;21486;51.916;8.378;2023-04-03T06:22:59;1.20;90.10
35381;DHT22;21486;51.916;8.378;2023-04-03T06:25:25;1.40;89.20
35381;DHT22;21486;51.916;8.378;2023-04-03T06:27:51;1.30;89.00
35381;DHT22;21486;51.916;8.378;2023-04-03T06:30:17;1.30;89.30
35381;DHT22;21486;51.916;8.378;2023-04-03T06:32:49;1.30;89.30
35381;DHT22;21486;51.916;8.378;2023-04-03T06:35:18;1.30;88.90
35381;DHT22;21486;51.916;8.378;2023-04-03T06:37:43;1.40;88.60
35381;DHT22;21486;51.916;8.378;2023-04-03T06:40:21;1.50;88.30
35381;DHT22;21486;51.916;8.378;2023-04-03T06:42:46;1.50;87.70
35381;DHT22;21486;51.916;8.378;2023-04-03T06:45:12;1.60;87.60
35381;DHT22;21486;51.916;8.378;2023-04-03T06:47:47;1.70;86.70
35381;DHT22;21486;51.916;8.378;2023-04-03T06:50:13;1.80;85.70
35381;DHT22;21486;51.916;8.378;2023-04-03T06:52:40;1.80;83.90
35381;DHT22;21486;51.916;8.378;2023-04-03T06:55:07;1.80;84.60
35381;DHT22;21486;51.916;8.378;2023-04-03T06:57:33;1.80;84.30
35381;DHT22;21486;51.916;8.378;2023-04-03T06:59:59;2.00;83.10
35381;DHT22;21486;51.916;8.378;2023-04-03T07:02:25;1.90;83.70
35381;DHT22;21486;51.916;8.378;2023-04-03T07:05:00;2.00;83.80
35381;DHT22;21486;51.916;8.378;2023-04-03T07:07:26;2.10;83.40
35381;DHT22;21486;51.916;8.378;2023-04-03T07:09:59;2.10;83.60
35381;DHT22;21486;51.916;8.378;2023-04-03T07:12:31;2.20;81.50
35381;DHT22;21486;51.916;8.378;2023-04-03T07:15:06;2.30;79.00
35381;DHT22;21486;51.916;8.378;2023-04-03T07:17:32;2.30;78.40
35381;DHT22;21486;51.916;8.378;2023-04-03T07:19:58;2.40;77.60
35381;DHT22;21486;51.916;8.378;2023-04-03T07:22:23;2.40;76.50
35381;DHT22;21486;51.916;8.378;2023-04-03T07:24:49;2.40;75.80
35381;DHT22;21486;51.916;8.378;2023-04-03T07:27:15;2.40;75.50
35381;DHT22;21486;51.916;8.378;2023-04-03T07:29:53;2.50;75.50
35381;DHT22;21486;51.916;8.378;2023-04-03T07:32:19;2.60;74.30
35381;DHT22;21486;51.916;8.378;2023-04-03T07:34:44;2.70;73.80
35381;DHT22;21486;51.916;8.378;2023-04-03T07:37:10;2.80;73.60
35381;DHT22;21486;51.916;8.378;2023-04-03T07:39:36;2.90;73.70
35381;DHT22;21486;51.916;8.378;2023-04-03T07:42:02;3.00;73.10
35381;DHT22;21486;51.916;8.378;2023-04-03T07:44:28;3.00;72.60
35381;DHT22;21486;51.916;8.378;2023-04-03T07:46:54;3.20;74.00
35381;DHT22;21486;51.916;8.378;2023-04-03T07:49:34;3.30;70.20
35381;DHT22;21486;51.916;8.378;2023-04-03T07:52:03;3.30;68.60
35381;DHT22;21486;51.916;8.378;2023-04-03T07:54:36;3.30;68.40
35381;DHT22;21486;51.916;8.378;2023-04-03T07:57:02;3.30;68.30
35381;DHT22;21486;51.916;8.378;2023-04-03T07:59:28;3.30;67.50
35381;DHT22;21486;51.916;8.378;2023-04-03T08:02:03;3.40;67.30
35381;DHT22;21486;51.916;8.378;2023-04-03T08:04:33;3.40;64.10
35381;DHT22;21486;51.916;8.378;2023-04-03T08:07:01;3.50;64.50
35381;DHT22;21486;51.916;8.378;2023-04-03T08:09:27;3.60;63.00
35381;DHT22;21486;51.916;8.378;2023-04-03T08:11:52;3.70;63.00
35381;DHT22;21486;51.916;8.378;2023-04-03T08:14:19;3.90;62.50
35381;DHT22;21486;51.916;8.378;2023-04-03T08:16:47;4.00;62.10
35381;DHT22;21486;51.916;8.378;2023-04-03T08:19:14;4.20;60.80
35381;DHT22;21486;51.916;8.378;2023-04-03T08:21:41;4.30;60.70
35381;DHT22;21486;51.916;8.378;2023-04-03T08:24:08;4.50;58.20
35381;DHT22;21486;51.916;8.378;2023-04-03T08:26:34;4.50;58.30
35381;DHT22;21486;51.916;8.378;2023-04-03T08:29:00;4.70;59.70
35381;DHT22;21486;51.916;8.378;2023-04-03T08:31:25;5.10;56.70
35381;DHT22;21486;51.916;8.378;2023-04-03T08:33:51;5.30;52.90
35381;DHT22;21486;51.916;8.378;2023-04-03T08:36:25;5.50;54.80
35381;DHT22;21486;51.916;8.378;2023-04-03T08:38:52;6.10;54.30
35381;DHT22;21486;51.916;8.378;2023-04-03T08:44:04;6.90;52.90
35381;DHT22;21486;51.916;8.378;2023-04-03T08:46:47;7.40;51.00
35381;DHT22;21486;51.916;8.378;2023-04-03T08:49:25;7.60;50.10
35381;DHT22;21486;51.916;8.378;2023-04-03T08:51:52;7.40;49.40
35381;DHT22;21486;51.916;8.378;2023-04-03T08:54:30;7.60;48.40
35381;DHT22;21486;51.916;8.378;2023-04-03T08:57:01;7.90;49.00
35381;DHT22;21486;51.916;8.378;2023-04-03T08:59:31;7.80;48.10
35381;DHT22;21486;51.916;8.378;2023-04-03T09:01:58;7.80;49.10
35381;DHT22;21486;51.916;8.378;2023-04-03T09:04:27;7.70;49.50
35381;DHT22;21486;51.916;8.378;2023-04-03T09:07:14;8.70;49.70
35381;DHT22;21486;51.916;8.378;2023-04-03T09:09:42;9.70;47.60
35381;DHT22;21486;51.916;8.378;2023-04-03T09:15:10;10.10;46.80
35381;DHT22;21486;51.916;8.378;2023-04-03T09:22:57;9.90;45.00
35381;DHT22;21486;51.916;8.378;2023-04-03T09:25:27;10.60;44.60
35381;DHT22;21486;51.916;8.378;2023-04-03T09:27:54;10.90;42.60
35381;DHT22;21486;51.916;8.378;2023-04-03T09:30:23;11.00;43.10
35381;DHT22;21486;51.916;8.378;2023-04-03T09:32:51;11.10;42.90
35381;DHT22;21486;51.916;8.378;2023-04-03T09:35:29;11.50;42.00
35381;DHT22;21486;51.916;8.378;2023-04-03T09:42:53;11.10;43.20
35381;DHT22;21486;51.916;8.378;2023-04-03T09:45:33;11.30;41.80
35381;DHT22;21486;51.916;8.378;2023-04-03T09:50:53;11.60;40.30
35381;DHT22;21486;51.916;8.378;2023-04-03T09:53:44;11.60;42.00
35381;DHT22;21486;51.916;8.378;2023-04-03T09:58:46;11.90;40.30
35381;DHT22;21486;51.916;8.378;2023-04-03T10:01:32;11.30;40.00
35381;DHT22;21486;51.916;8.378;2023-04-03T10:04:13;11.10;40.60
35381;DHT22;21486;51.916;8.378;2023-04-03T10:06:47;11.00;41.70
35381;DHT22;21486;51.916;8.378;2023-04-03T10:09:33;10.60;41.00
35381;DHT22;21486;51.916;8.378;2023-04-03T10:12:10;10.60;40.50
35381;DHT22;21486;51.916;8.378;2023-04-03T10:14:39;11.00;41.70
35381;DHT22;21486;51.916;8.378;2023-04-03T10:20:06;10.70;41.60
35381;DHT22;21486;51.916;8.378;2023-04-03T10:28:04;9.30;43.10
35381;DHT22;21486;51.916;8.378;2023-04-03T10:33:24;9.90;42.10
35381;DHT22;21486;51.916;8.378;2023-04-03T10:41:21;10.00;43.50
35381;DHT22;21486;51.916;8.378;2023-04-03T10:44:11;10.20;42.60
35381;DHT22;21486;51.916;8.378;2023-04-03T10:46:47;10.90;43.50
35381;DHT22;21486;51.916;8.378;2023-04-03T10:52:02;11.60;40.30
35381;DHT22;21486;51.916;8.378;2023-04-03T10:54:34;12.40;42.70
35381;DHT22;21486;51.916;8.378;2023-04-03T10:57:04;13.00;39.70
35381;DHT22;21486;51.916;8.378;2023-04-03T10:59:38;12.90;37.80
35381;DHT22;21486;51.916;8.378;2023-04-03T11:02:28;12.10;38.60
35381;DHT22;21486;51.916;8.378;2023-04-03T11:04:59;11.00;39.60
35381;DHT22;21486;51.916;8.378;2023-04-03T11:07:27;10.20;40.30
35381;DHT22;21486;51.916;8.378;2023-04-03T11:09:58;9.70;42.10
35381;DHT22;21486;51.916;8.378;2023-04-03T11:12:27;9.00;43.90
35381;DHT22;21486;51.916;8.378;2023-04-03T11:14:55;8.30;45.30
35381;DHT22;21486;51.916;8.378;2023-04-03T11:25:14;8.00;46.20
35381;DHT22;21486;51.916;8.378;2023-04-03T11:33:02;10.00;43.40
35381;DHT22;21486;51.916;8.378;2023-04-03T11:35:29;10.70;44.20
35381;DHT22;21486;51.916;8.378;2023-04-03T11:37:56;11.40;41.80
35381;DHT22;21486;51.916;8.378;2023-04-03T11:40:24;11.60;41.70
35381;DHT22;21486;51.916;8.378;2023-04-03T11:42:54;11.40;40.60
35381;DHT22;21486;51.916;8.378;2023-04-03T11:53:00;8.70;46.00
35381;DHT22;21486;51.916;8.378;2023-04-03T12:05:49;8.00;47.70
35381;DHT22;21486;51.916;8.378;2023-04-03T12:08:15;8.60;46.10
35381;DHT22;21486;51.916;8.378;2023-04-03T12:10:41;8.60;45.00
35381;DHT22;21486;51.916;8.378;2023-04-03T12:13:13;8.90;46.40
35381;DHT22;21486;51.916;8.378;2023-04-03T12:20:56;10.60;43.00
35381;DHT22;21486;51.916;8.378;2023-04-03T12:23:23;9.80;44.30
35381;DHT22;21486;51.916;8.378;2023-04-03T12:25:50;9.20;45.90
35381;DHT22;21486;51.916;8.378;2023-04-03T12:28:16;9.10;46.90
35381;DHT22;21486;51.916;8.378;2023-04-03T12:30:41;9.80;46.00
35381;DHT22;21486;51.916;8.378;2023-04-03T12:33:23;10.50;45.60
35381;DHT22;21486;51.916;8.378;2023-04-03T12:35:57;10.70;42.20
35381;DHT22;21486;51.916;8.378;2023-04-03T12:38:50;10.10;43.80
35381;DHT22;21486;51.916;8.378;2023-04-03T12:41:30;9.60;44.50
35381;DHT22;21486;51.916;8.378;2023-04-03T12:44:01;8.50;46.50
35381;DHT22;21486;51.916;8.378;2023-04-03T12:46:36;8.70;47.40
35381;DHT22;21486;51.916;8.378;2023-04-03T12:49:05;9.50;46.80
35381;DHT22;21486;51.916;8.378;2023-04-03T12:51:39;10.20;44.10
35381;DHT22;21486;51.916;8.378;2023-04-03T12:54:38;10.10;43.10
35381;DHT22;21486;51.916;8.378;2023-04-03T12:57:18;9.10;44.00
35381;DHT22;21486;51.916;8.378;2023-04-03T12:59:43;8.70;45.40
35381;DHT22;21486;51.916;8.378;2023-04-03T13:04:42;9.30;42.40
35381;DHT22;21486;51.916;8.378;2023-04-03T13:07:17;9.40;44.00
35381;DHT22;21486;51.916;8.378;2023-04-03T13:09:43;9.50;44.30
35381;DHT22;21486;51.916;8.378;2023-04-03T13:12:13;9.10;45.10
35381;DHT22;21486;51.916;8.378;2023-04-03T13:14:39;8.90;45.80
35381;DHT22;21486;51.916;8.378;2023-04-03T13:17:12;8.60;47.20
35381;DHT22;21486;51.916;8.378;2023-04-03T13:19:39;8.40;46.80
35381;DHT22;21486;51.916;8.378;2023-04-03T13:22:05;8.50;47.10
35381;DHT22;21486;51.916;8.378;2023-04-03T13:24:34;9.00;46.20
35381;DHT22;21486;51.916;8.378;2023-04-03T13:27:00;9.30;44.70
35381;DHT22;21486;51.916;8.378;2023-04-03T13:29:30;9.50;44.80
35381;DHT22;21486;51.916;8.378;2023-04-03T13:31:57;9.20;44.00
35381;DHT22;21486;51.916;8.378;2023-04-03T13:34:23;8.90;44.70
35381;DHT22;21486;51.916;8.378;2023-04-03T13:41:43;9.10;45.60
35381;DHT22;21486;51.916;8.378;2023-04-03T13:46:40;8.80;45.60
35381;DHT22;21486;51.916;8.378;2023-04-03T13:49:17;8.70;46.50
35381;DHT22;21486;51.916;8.378;2023-04-03T13:51:42;8.60;45.70
35381;DHT22;21486;51.916;8.378;2023-04-03T13:54:16;8.50;47.30
35381;DHT22;21486;51.916;8.378;2023-04-03T13:56:43;8.60;47.70
35381;DHT22;21486;51.916;8.378;2023-04-03T14:01:39;8.30;47.20
35381;DHT22;21486;51.916;8.378;2023-04-03T14:04:13;8.30;49.60
35381;DHT22;21486;51.916;8.378;2023-04-03T14:06:39;8.70;48.70
35381;DHT22;21486;51.916;8.378;2023-04-03T14:09:04;9.10;47.00
35381;DHT22;21486;51.916;8.378;2023-04-03T14:11:30;9.20;46.00
35381;DHT22;21486;51.916;8.378;2023-04-03T14:13:57;9.10;45.10
35381;DHT22;21486;51.916;8.378;2023-04-03T14:16:26;9.00;45.50
35381;DHT22;21486;51.916;8.378;2023-04-03T14:18:52;8.60;47.40
35381;DHT22;21486;51.916;8.378;2023-04-03T14:21:18;8.50;46.30
35381;DHT22;21486;51.916;8.378;2023-04-03T14:23:45;8.40;47.00
35381;DHT22;21486;51.916;8.378;2023-04-03T14:26:14;8.30;47.60
35381;DHT22;21486;51.916;8.378;2023-04-03T14:28:42;8.30;48.30
35381;DHT22;21486;51.916;8.378;2023-04-03T14:31:09;8.30;47.40
35381;DHT22;21486;51.916;8.378;2023-04-03T14:33:35;8.30;47.20
35381;DHT22;21486;51.916;8.378;2023-04-03T14:36:04;8.10;46.40
35381;DHT22;21486;51.916;8.378;2023-04-03T14:38:30;8.20;48.00
35381;DHT22;21486;51.916;8.378;2023-04-03T14:40:56;8.30;48.20
35381;DHT22;21486;51.916;8.378;2023-04-03T14:43:22;8.40;47.10
35381;DHT22;21486;51.916;8.378;2023-04-03T14:45:48;8.40;46.20
35381;DHT22;21486;51.916;8.378;2023-04-03T14:48:24;8.40;47.20
35381;DHT22;21486;51.916;8.378;2023-04-03T14:50:51;8.30;47.50
35381;DHT22;21486;51.916;8.378;2023-04-03T14:53:16;8.20;47.70
35381;DHT22;21486;51.916;8.378;2023-04-03T14:55:44;8.20;47.10
35381;DHT22;21486;51.916;8.378;2023-04-03T14:58:13;8.20;47.00
35381;DHT22;21486;51.916;8.378;2023-04-03T15:00:39;8.10;46.20
35381;DHT22;21486;51.916;8.378;2023-04-03T15:03:05;8.30;47.90
35381;DHT22;21486;51.916;8.378;2023-04-03T15:05:30;8.20;47.10
35381;DHT22;21486;51.916;8.378;2023-04-03T15:07:56;7.90;46.70
35381;DHT22;21486;51.916;8.378;2023-04-03T15:10:27;7.80;47.40
35381;DHT22;21486;51.916;8.378;2023-04-03T15:12:53;7.90;47.30
35381;DHT22;21486;51.916;8.378;2023-04-03T15:15:20;8.00;47.50
35381;DHT22;21486;51.916;8.378;2023-04-03T15:17:46;8.10;47.50
35381;DHT22;21486;51.916;8.378;2023-04-03T15:20:16;8.00;47.40
35381;DHT22;21486;51.916;8.378;2023-04-03T15:22:42;7.90;46.10
35381;DHT22;21486;51.916;8.378;2023-04-03T15:25:08;7.90;46.40
35381;DHT22;21486;51.916;8.378;2023-04-03T15:27:34;7.90;47.20
35381;DHT22;21486;51.916;8.378;2023-04-03T15:29:59;7.90;47.10
35381;DHT22;21486;51.916;8.378;2023-04-03T15:32:25;8.10;49.30
35381;DHT22;21486;51.916;8.378;2023-04-03T15:34:50;8.20;47.60
35381;DHT22;21486;51.916;8.378;2023-04-03T15:37:15;8.30;47.70
35381;DHT22;21486;51.916;8.378;2023-04-03T15:39:41;8.40;47.80
35381;DHT22;21486;51.916;8.378;2023-04-03T15:42:06;8.40;47.30
35381;DHT22;21486;51.916;8.378;2023-04-03T15:44:33;8.30;46.90
35381;DHT22;21486;51.916;8.378;2023-04-03T15:46:59;8.40;47.60
35381;DHT22;21486;51.916;8.378;2023-04-03T15:49:25;8.60;47.80
35381;DHT22;21486;51.916;8.378;2023-04-03T15:51:51;8.50;47.10
35381;DHT22;21486;51.916;8.378;2023-04-03T15:54:17;8.20;46.80
35381;DHT22;21486;51.916;8.378;2023-04-03T15:56:42;8.20;48.00
35381;DHT22;21486;51.916;8.378;2023-04-03T15:59:08;8.20;48.80
35381;DHT22;21486;51.916;8.378;2023-04-03T16:01:33;8.10;47.70
35381;DHT22;21486;51.916;8.378;2023-04-03T16:03:59;7.80;47.30
35381;DHT22;21486;51.916;8.378;2023-04-03T16:06:24;7.50;47.90
35381;DHT22;21486;51.916;8.378;2023-04-03T16:08:50;7.30;48.30
35381;DHT22;21486;51.916;8.378;2023-04-03T16:11:16;7.30;48.90
35381;DHT22;21486;51.916;8.378;2023-04-03T16:13:41;7.20;49.00
35381;DHT22;21486;51.916;8.378;2023-04-03T16:16:07;7.20;48.80
35381;DHT22;21486;51.916;8.378;2023-04-03T16:18:33;7.30;49.10
35381;DHT22;21486;51.916;8.378;2023-04-03T16:20:59;7.40;50.60
35381;DHT22;21486;51.916;8.378;2023-04-03T16:23:25;7.50;48.70
35381;DHT22;21486;51.916;8.378;2023-04-03T16:25:50;7.50;48.60
35381;DHT22;21486;51.916;8.378;2023-04-03T16:28:16;7.60;48.00
35381;DHT22;21486;51.916;8.378;2023-04-03T16:30:43;7.60;48.30
35381;DHT22;21486;51.916;8.378;2023-04-03T16:33:09;7.50;48.30
35381;DHT22;21486;51.916;8.378;2023-04-03T16:35:35;7.50;48.20
35381;DHT22;21486;51.916;8.378;2023-04-03T16:38:00;7.70;48.70
35381;DHT22;21486;51.916;8.378;2023-04-03T16:40:26;7.50;48.00
35381;DHT22;21486;51.916;8.378;2023-04-03T16:42:51;7.60;48.00
35381;DHT22;21486;51.916;8.378;2023-04-03T16:45:17;7.40;48.50
35381;DHT22;21486;51.916;8.378;2023-04-03T16:47:42;7.40;49.00
35381;DHT22;21486;51.916;8.378;2023-04-03T16:50:08;7.30;48.40
35381;DHT22;21486;51.916;8.378;2023-04-03T16:52:33;7.30;48.80
35381;DHT22;21486;51.916;8.378;2023-04-03T16:54:59;7.30;48.90
35381;DHT22;21486;51.916;8.378;2023-04-03T16:57:24;7.20;49.10
35381;DHT22;21486;51.916;8.378;2023-04-03T16:59:50;7.10;51.00
35381;DHT22;21486;51.916;8.378;2023-04-03T17:02:16;7.30;49.80
35381;DHT22;21486;51.916;8.378;2023-04-03T17:04:42;7.30;50.10
35381;DHT22;21486;51.916;8.378;2023-04-03T17:07:07;7.20;48.50
35381;DHT22;21486;51.916;8.378;2023-04-03T17:09:33;7.20;48.70
35381;DHT22;21486;51.916;8.378;2023-04-03T17:11:59;7.10;49.10
35381;DHT22;21486;51.916;8.378;2023-04-03T17:14:24;7.10;49.60
35381;DHT22;21486;51.916;8.378;2023-04-03T17:16:50;7.00;49.90
35381;DHT22;21486;51.916;8.378;2023-04-03T17:19:16;7.00;50.00
35381;DHT22;21486;51.916;8.378;2023-04-03T17:21:42;6.90;49.40
35381;DHT22;21486;51.916;8.378;2023-04-03T17:24:08;7.00;49.40
35381;DHT22;21486;51.916;8.378;2023-04-03T17:26:38;6.80;49.90